createdAt,value
2018-06-27T00:01:21.441Z,16.10
2018-06-27T00:03:51.261Z,16.10
2018-06-27T00:06:21.093Z,16.00
2018-06-27T00:08:51.028Z,16.10
2018-06-27T00:11:20.711Z,16.00
2018-06-27T00:13:50.491Z,15.90
2018-06-27T00:16:19.923Z,15.90
2018-06-27T00:18:49.637Z,15.90
2018-06-27T00:23:48.626Z,15.80
2018-06-27T00:26:18.492Z,15.80
2018-06-27T00:28:48.373Z,15.70
2018-06-27T00:31:18.152Z,15.70
2018-06-27T00:33:47.975Z,15.70
2018-06-27T00:36:17.819Z,15.70
2018-06-27T00:38:47.464Z,15.70
2018-06-27T00:41:17.272Z,15.60
2018-06-27T00:43:46.988Z,15.60
2018-06-27T00:46:16.636Z,15.50
2018-06-27T00:48:46.307Z,15.50
2018-06-27T00:51:16.172Z,15.60
2018-06-27T00:53:51.112Z,15.50
2018-06-27T00:56:20.464Z,15.50
2018-06-27T00:58:50.840Z,15.50
2018-06-27T01:01:20.687Z,15.50
2018-06-27T01:03:50.481Z,15.50
2018-06-27T01:06:20.083Z,15.40
2018-06-27T01:08:49.554Z,15.40
2018-06-27T01:11:18.901Z,15.40
2018-06-27T01:13:48.632Z,15.40
2018-06-27T01:16:18.706Z,15.30
2018-06-27T01:18:48.408Z,15.30
2018-06-27T01:21:18.137Z,15.30
2018-06-27T01:23:48.248Z,15.30
2018-06-27T01:26:17.923Z,15.30
2018-06-27T01:28:47.648Z,15.30
2018-06-27T01:31:17.293Z,15.30
2018-06-27T01:33:47.080Z,15.30
2018-06-27T01:36:16.705Z,15.30
2018-06-27T01:41:15.920Z,15.30
2018-06-27T01:43:45.604Z,15.30
2018-06-27T01:46:15.001Z,15.30
2018-06-27T01:48:44.682Z,15.30
2018-06-27T01:51:14.484Z,15.20
2018-06-27T01:53:44.146Z,15.20
2018-06-27T01:56:13.791Z,15.20
2018-06-27T01:58:43.498Z,15.20
2018-06-27T02:01:13.265Z,15.20
2018-06-27T02:03:42.921Z,15.20
2018-06-27T02:06:12.638Z,15.20
2018-06-27T02:08:42.320Z,15.20
2018-06-27T02:11:12.233Z,15.20
2018-06-27T02:13:42.016Z,15.10
2018-06-27T02:16:11.496Z,15.00
2018-06-27T02:18:41.134Z,15.00
2018-06-27T02:21:11.460Z,15.00
2018-06-27T02:23:41.505Z,15.00
2018-06-27T02:26:11.191Z,15.00
2018-06-27T02:28:40.903Z,15.10
2018-06-27T02:31:10.593Z,15.10
2018-06-27T02:33:40.240Z,15.10
2018-06-27T02:36:09.835Z,15.10
2018-06-27T02:38:39.591Z,15.00
2018-06-27T02:41:09.587Z,15.00
2018-06-27T02:43:39.088Z,15.00
2018-06-27T02:46:08.857Z,15.00
2018-06-27T02:48:38.514Z,14.90
2018-06-27T02:51:08.273Z,14.90
2018-06-27T02:53:38.392Z,14.90
2018-06-27T02:56:10.985Z,14.90
2018-06-27T02:58:41.060Z,14.90
2018-06-27T03:01:10.481Z,14.90
2018-06-27T03:03:40.457Z,14.90
2018-06-27T03:06:10.420Z,14.90
2018-06-27T03:08:40.121Z,14.90
2018-06-27T03:11:10.097Z,14.90
2018-06-27T03:13:39.530Z,14.90
2018-06-27T03:16:09.263Z,14.90
2018-06-27T03:18:49.092Z,14.90
2018-06-27T03:21:18.768Z,14.90
2018-06-27T03:23:48.089Z,14.90
2018-06-27T03:26:18.153Z,14.90
2018-06-27T03:28:48.165Z,14.90
2018-06-27T03:31:18.095Z,14.90
2018-06-27T03:33:47.986Z,14.90
2018-06-27T03:36:17.862Z,14.80
2018-06-27T03:38:47.573Z,14.80
2018-06-27T03:41:17.002Z,14.90
2018-06-27T03:43:46.607Z,14.90
2018-06-27T03:46:16.724Z,15.00
2018-06-27T03:48:46.489Z,14.90
2018-06-27T03:51:16.506Z,14.90
2018-06-27T03:53:51.547Z,15.00
2018-06-27T03:56:21.681Z,15.00
2018-06-27T03:58:51.359Z,15.00
2018-06-27T04:01:21.044Z,15.10
2018-06-27T04:03:51.097Z,15.10
2018-06-27T04:06:21.116Z,15.20
2018-06-27T04:08:50.831Z,15.10
2018-06-27T04:11:20.505Z,15.10
2018-06-27T04:13:50.116Z,15.20
2018-06-27T04:16:20.404Z,15.20
2018-06-27T04:18:50.193Z,15.10
2018-06-27T04:21:19.810Z,15.30
2018-06-27T04:23:49.576Z,15.30
2018-06-27T04:26:19.558Z,15.30
2018-06-27T04:28:49.217Z,15.20
2018-06-27T04:31:18.949Z,15.20
2018-06-27T04:33:49.120Z,15.20
2018-06-27T04:36:18.799Z,15.30
2018-06-27T04:38:48.485Z,15.50
2018-06-27T04:41:18.164Z,15.60
2018-06-27T04:43:47.831Z,15.70
2018-06-27T04:46:17.551Z,15.70
2018-06-27T04:48:47.228Z,15.70
2018-06-27T04:51:16.972Z,15.70
2018-06-27T04:53:47.158Z,15.80
2018-06-27T04:56:17.171Z,16.00
2018-06-27T04:58:47.120Z,16.00
2018-06-27T05:01:16.857Z,16.10
2018-06-27T05:03:46.882Z,16.10
2018-06-27T05:06:16.458Z,16.10
2018-06-27T05:08:46.455Z,16.20
2018-06-27T05:11:16.061Z,16.20
2018-06-27T05:13:45.484Z,16.20
2018-06-27T05:16:14.903Z,16.30
2018-06-27T05:18:44.596Z,16.30
2018-06-27T05:21:13.716Z,16.40
2018-06-27T05:23:43.265Z,16.50
2018-06-27T05:26:13.679Z,16.60
2018-06-27T05:28:43.152Z,16.70
2018-06-27T05:31:12.222Z,16.70
2018-06-27T05:33:41.664Z,16.80
2018-06-27T05:36:11.048Z,17.00
2018-06-27T05:38:40.469Z,17.10
2018-06-27T05:41:09.516Z,17.50
2018-06-27T05:43:38.980Z,17.90
2018-06-27T05:48:37.343Z,18.70
2018-06-27T05:51:06.662Z,19.30
2018-06-27T05:53:35.788Z,20.00
2018-06-27T05:56:06.252Z,20.30
2018-06-27T05:58:35.611Z,20.80
2018-06-27T06:01:05.105Z,20.60
2018-06-27T06:03:34.514Z,20.70
2018-06-27T06:06:04.257Z,21.00
2018-06-27T06:08:33.646Z,21.20
2018-06-27T06:11:03.011Z,21.10
2018-06-27T06:13:32.404Z,21.40
2018-06-27T06:16:02.210Z,21.20
2018-06-27T06:18:33.860Z,21.40
2018-06-27T06:21:03.108Z,21.70
2018-06-27T06:23:32.458Z,21.80
2018-06-27T06:26:01.530Z,21.80
2018-06-27T06:28:31.700Z,22.00
2018-06-27T06:31:01.108Z,22.30
2018-06-27T06:33:30.474Z,22.50
2018-06-27T06:35:59.904Z,22.90
2018-06-27T06:38:29.436Z,22.80
2018-06-27T06:40:58.621Z,23.20
2018-06-27T06:43:27.938Z,23.10
2018-06-27T06:45:57.427Z,22.90
2018-06-27T06:48:26.930Z,23.00
2018-06-27T06:50:56.288Z,22.70
2018-06-27T06:53:25.687Z,22.30
2018-06-27T06:55:54.804Z,22.50
2018-06-27T06:58:24.180Z,22.40
2018-06-27T07:00:53.550Z,22.50
2018-06-27T07:03:22.952Z,22.70
2018-06-27T07:05:52.384Z,22.20
2018-06-27T07:08:22.143Z,21.90
2018-06-27T07:10:51.711Z,22.00
2018-06-27T07:13:21.108Z,22.30
2018-06-27T07:15:50.532Z,22.80
2018-06-27T07:18:19.932Z,23.30
2018-06-27T07:20:49.363Z,22.90
2018-06-27T07:23:18.740Z,22.80
2018-06-27T07:25:48.198Z,22.80
2018-06-27T07:28:17.624Z,23.50
2018-06-27T07:30:46.936Z,23.40
2018-06-27T07:33:16.449Z,23.30
2018-06-27T07:35:45.808Z,23.10
2018-06-27T07:38:15.248Z,23.30
2018-06-27T07:40:44.671Z,23.60
2018-06-27T07:43:13.996Z,23.90
2018-06-27T07:45:43.504Z,24.40
2018-06-27T07:48:13.608Z,24.50
2018-06-27T07:50:43.380Z,24.80
2018-06-27T07:53:12.670Z,25.50
2018-06-27T07:55:42.068Z,25.90
2018-06-27T07:58:11.383Z,26.20
2018-06-27T08:00:40.778Z,26.20
2018-06-27T08:03:10.513Z,26.00
2018-06-27T08:05:39.927Z,26.00
2018-06-27T08:08:09.313Z,25.90
2018-06-27T08:10:38.732Z,25.90
2018-06-27T08:13:07.885Z,26.00
2018-06-27T08:15:37.223Z,25.60
2018-06-27T08:18:06.502Z,25.20
2018-06-27T08:20:38.476Z,25.10
2018-06-27T08:23:09.908Z,24.90
2018-06-27T08:25:45.923Z,25.60
2018-06-27T08:28:16.807Z,25.40
2018-06-27T08:30:46.185Z,24.90
2018-06-27T08:33:16.375Z,24.30
2018-06-27T08:35:46.056Z,24.30
2018-06-27T08:38:15.814Z,24.60
2018-06-27T08:40:45.264Z,25.20
2018-06-27T08:43:14.616Z,25.40
2018-06-27T08:45:44.303Z,25.60
2018-06-27T08:48:13.728Z,26.50
2018-06-27T08:50:43.136Z,26.50
2018-06-27T08:53:12.516Z,26.50
2018-06-27T08:55:41.558Z,26.90
2018-06-27T09:00:40.750Z,27.40
2018-06-27T09:03:10.199Z,27.80
2018-06-27T09:05:40.284Z,27.30
2018-06-27T09:08:09.670Z,27.30
2018-06-27T09:10:39.235Z,26.20
2018-06-27T09:13:08.596Z,25.60
2018-06-27T09:15:38.294Z,25.10
2018-06-27T09:18:07.650Z,24.90
2018-06-27T09:20:37.093Z,25.00
2018-06-27T09:23:06.791Z,24.70
2018-06-27T09:25:36.302Z,24.90
2018-06-27T09:28:06.088Z,26.00
2018-06-27T09:30:35.756Z,25.90
2018-06-27T09:33:05.135Z,25.90
2018-06-27T09:35:34.529Z,26.20
2018-06-27T09:38:03.915Z,26.70
2018-06-27T09:40:33.669Z,26.50
2018-06-27T09:43:02.839Z,25.80
2018-06-27T09:45:32.064Z,25.30
2018-06-27T09:48:01.674Z,24.70
2018-06-27T09:50:31.585Z,24.10
2018-06-27T09:53:01.390Z,23.50
2018-06-27T09:55:31.272Z,23.60
2018-06-27T09:58:00.675Z,24.40
2018-06-27T10:00:35.357Z,25.60
2018-06-27T10:03:05.313Z,26.60
2018-06-27T10:05:35.177Z,27.30
2018-06-27T10:08:05.067Z,27.20
2018-06-27T10:10:34.991Z,27.00
2018-06-27T10:13:05.201Z,26.90
2018-06-27T10:15:34.936Z,27.70
2018-06-27T10:18:04.364Z,28.10
2018-06-27T10:20:33.750Z,28.40
2018-06-27T10:23:03.519Z,27.40
2018-06-27T10:25:32.973Z,26.50
2018-06-27T10:28:02.411Z,26.60
2018-06-27T10:30:31.851Z,26.60
2018-06-27T10:33:01.188Z,26.10
2018-06-27T10:35:30.725Z,26.50
2018-06-27T10:38:00.570Z,27.80
2018-06-27T10:40:29.938Z,28.90
2018-06-27T10:42:59.182Z,29.20
2018-06-27T10:45:28.729Z,29.70
2018-06-27T10:47:58.021Z,30.10
2018-06-27T10:50:27.562Z,30.60
2018-06-27T10:52:56.719Z,29.00
2018-06-27T10:55:26.009Z,27.70
2018-06-27T10:57:55.378Z,27.90
2018-06-27T11:00:24.565Z,28.50
2018-06-27T11:02:54.090Z,29.40
2018-06-27T11:05:23.757Z,29.60
2018-06-27T11:07:53.411Z,30.00
2018-06-27T11:10:22.945Z,31.00
2018-06-27T11:12:52.613Z,31.30
2018-06-27T11:15:22.434Z,31.00
2018-06-27T11:17:51.958Z,32.40
2018-06-27T11:20:21.393Z,31.50
2018-06-27T11:22:50.986Z,30.00
2018-06-27T11:25:20.423Z,29.50
2018-06-27T11:27:49.848Z,29.80
2018-06-27T11:30:19.543Z,30.40
2018-06-27T11:32:48.996Z,31.10
2018-06-27T11:35:18.648Z,31.70
2018-06-27T11:37:48.383Z,32.70
2018-06-27T11:40:18.289Z,33.20
2018-06-27T11:42:48.104Z,32.80
2018-06-27T11:45:17.512Z,30.70
2018-06-27T11:47:46.905Z,28.90
2018-06-27T11:50:16.686Z,28.10
2018-06-27T11:52:45.780Z,28.00
2018-06-27T11:55:15.265Z,29.40
2018-06-27T11:57:44.910Z,31.10
2018-06-27T12:00:14.328Z,31.80
2018-06-27T12:02:43.961Z,31.40
2018-06-27T12:05:13.682Z,30.40
2018-06-27T12:07:42.865Z,29.70
2018-06-27T12:10:12.111Z,29.40
2018-06-27T12:12:41.165Z,30.00
2018-06-27T12:15:11.010Z,31.10
2018-06-27T12:17:40.745Z,32.40
2018-06-27T12:22:39.308Z,33.80
2018-06-27T12:25:08.499Z,35.00
2018-06-27T12:27:38.377Z,34.90
2018-06-27T12:30:16.352Z,34.30
2018-06-27T12:32:45.572Z,33.30
2018-06-27T12:35:14.867Z,32.30
2018-06-27T12:40:13.468Z,30.90
2018-06-27T12:42:42.972Z,29.80
2018-06-27T12:45:12.384Z,29.10
2018-06-27T12:47:42.503Z,28.60
2018-06-27T12:50:11.843Z,28.00
2018-06-27T12:52:42.490Z,28.50
2018-06-27T12:55:13.869Z,29.70
2018-06-27T12:57:43.325Z,30.40
2018-06-27T13:00:12.840Z,31.40
2018-06-27T13:02:42.658Z,31.20
2018-06-27T13:05:12.382Z,30.40
2018-06-27T13:07:41.729Z,29.90
2018-06-27T13:10:11.488Z,29.40
2018-06-27T13:12:40.745Z,28.50
2018-06-27T13:15:10.115Z,27.30
2018-06-27T13:17:39.190Z,27.20
2018-06-27T13:20:08.632Z,27.20
2018-06-27T13:22:37.713Z,27.40
2018-06-27T13:25:07.179Z,27.70
2018-06-27T13:27:37.233Z,28.70
2018-06-27T13:30:06.808Z,29.20
2018-06-27T13:32:36.214Z,28.60
2018-06-27T13:35:06.107Z,28.20
2018-06-27T13:37:36.020Z,27.50
2018-06-27T13:40:05.563Z,27.10
2018-06-27T13:42:35.531Z,27.10
2018-06-27T13:45:05.473Z,26.90
2018-06-27T13:47:34.570Z,27.60
2018-06-27T13:50:04.476Z,29.30
2018-06-27T13:52:34.086Z,31.20
2018-06-27T13:55:03.552Z,32.10
2018-06-27T13:57:32.911Z,31.90
2018-06-27T14:00:02.382Z,30.80
2018-06-27T14:02:31.609Z,29.80
2018-06-27T14:05:01.025Z,28.60
2018-06-27T14:07:30.406Z,27.70
2018-06-27T14:10:00.000Z,27.00
2018-06-27T14:12:29.379Z,26.90
2018-06-27T14:14:58.754Z,26.60
2018-06-27T14:17:28.568Z,26.40
2018-06-27T14:19:57.975Z,26.10
2018-06-27T14:22:27.437Z,26.10
2018-06-27T14:24:56.815Z,26.00
2018-06-27T14:27:26.333Z,26.00
2018-06-27T14:29:55.722Z,25.90
2018-06-27T14:32:25.045Z,25.70
2018-06-27T14:34:54.479Z,26.00
2018-06-27T14:37:23.849Z,26.10
2018-06-27T14:39:53.301Z,26.20
2018-06-27T14:42:22.753Z,26.40
2018-06-27T14:44:52.239Z,26.60
2018-06-27T14:47:22.495Z,26.50
2018-06-27T14:49:51.980Z,26.70
2018-06-27T14:52:21.562Z,26.90
2018-06-27T14:54:51.741Z,26.80
2018-06-27T14:57:20.901Z,26.60
2018-06-27T14:59:50.088Z,26.30
2018-06-27T15:02:19.454Z,26.10
2018-06-27T15:04:49.004Z,26.00
2018-06-27T15:07:18.684Z,25.70
2018-06-27T15:09:49.153Z,25.50
2018-06-27T15:12:18.699Z,25.30
2018-06-27T15:14:47.776Z,25.10
2018-06-27T15:17:17.540Z,25.10
2018-06-27T15:19:47.008Z,25.10
2018-06-27T15:22:16.941Z,25.10
2018-06-27T15:24:46.626Z,25.10
2018-06-27T15:27:16.052Z,25.20
2018-06-27T15:29:45.496Z,25.30
2018-06-27T15:32:14.867Z,25.30
2018-06-27T15:34:44.150Z,25.30
2018-06-27T15:37:13.612Z,25.40
2018-06-27T15:39:43.058Z,25.60
2018-06-27T15:42:12.469Z,25.80
2018-06-27T15:44:41.888Z,25.80
2018-06-27T15:47:11.376Z,25.90
2018-06-27T15:49:40.784Z,26.00
2018-06-27T15:52:11.048Z,25.90
2018-06-27T15:54:40.963Z,25.80
2018-06-27T15:57:10.712Z,25.80
2018-06-27T15:59:45.506Z,25.80
2018-06-27T16:02:15.031Z,25.60
2018-06-27T16:04:44.195Z,25.60
2018-06-27T16:07:13.973Z,25.60
2018-06-27T16:09:43.673Z,25.50
2018-06-27T16:12:13.233Z,25.50
2018-06-27T16:14:42.628Z,25.30
2018-06-27T16:17:12.105Z,25.30
2018-06-27T16:19:41.460Z,25.20
2018-06-27T16:22:10.838Z,25.30
2018-06-27T16:24:40.236Z,25.30
2018-06-27T16:27:09.681Z,25.10
2018-06-27T16:29:39.339Z,25.10
2018-06-27T16:32:08.898Z,25.10
2018-06-27T16:34:40.082Z,25.00
2018-06-27T16:37:09.980Z,25.00
2018-06-27T16:39:39.386Z,25.00
2018-06-27T16:42:09.113Z,25.10
2018-06-27T16:44:38.516Z,25.10
2018-06-27T16:47:08.421Z,25.20
2018-06-27T16:49:38.162Z,25.40
2018-06-27T16:52:07.653Z,25.40
2018-06-27T16:54:37.423Z,25.30
2018-06-27T16:57:07.057Z,25.30
2018-06-27T16:59:36.535Z,25.40
2018-06-27T17:02:06.194Z,25.50
2018-06-27T17:04:35.575Z,25.50
2018-06-27T17:07:05.262Z,25.40
2018-06-27T17:09:34.884Z,25.40
2018-06-27T17:12:04.554Z,25.30
2018-06-27T17:14:34.240Z,25.30
2018-06-27T17:17:03.664Z,25.20
2018-06-27T17:19:33.072Z,25.10
2018-06-27T17:22:02.891Z,25.00
2018-06-27T17:24:32.355Z,25.10
2018-06-27T17:27:02.125Z,25.00
2018-06-27T17:29:31.564Z,24.90
2018-06-27T17:32:01.103Z,24.80
2018-06-27T17:34:30.560Z,24.70
2018-06-27T17:37:00.113Z,24.70
2018-06-27T17:39:29.486Z,24.70
2018-06-27T17:41:59.491Z,24.60
2018-06-27T17:44:28.975Z,24.60
2018-06-27T17:46:58.625Z,24.40
2018-06-27T17:49:28.114Z,24.30
2018-06-27T17:51:57.242Z,24.20
2018-06-27T17:54:27.136Z,24.00
2018-06-27T17:56:56.368Z,23.90
2018-06-27T17:59:26.079Z,23.80
2018-06-27T18:01:56.054Z,23.80
2018-06-27T18:04:25.632Z,23.70
2018-06-27T18:06:55.198Z,23.80
2018-06-27T18:09:24.313Z,23.70
2018-06-27T18:11:54.166Z,23.70
2018-06-27T18:14:23.935Z,23.70
2018-06-27T18:16:53.474Z,23.70
2018-06-27T18:19:22.812Z,23.70
2018-06-27T18:21:52.882Z,23.70
2018-06-27T18:24:22.224Z,23.60
2018-06-27T18:26:51.349Z,23.60
2018-06-27T18:29:21.367Z,23.60
2018-06-27T18:31:50.500Z,23.50
2018-06-27T18:34:20.230Z,23.50
2018-06-27T18:36:49.658Z,23.50
2018-06-27T18:39:19.638Z,23.40
2018-06-27T18:41:49.033Z,23.30
2018-06-27T18:44:18.822Z,23.30
2018-06-27T18:46:48.151Z,23.30
2018-06-27T18:49:17.269Z,23.30
2018-06-27T18:51:46.344Z,23.30
2018-06-27T18:54:16.055Z,23.20
2018-06-27T18:56:45.464Z,23.20
2018-06-27T18:59:15.243Z,23.10
2018-06-27T19:01:45.321Z,23.10
2018-06-27T19:04:15.341Z,23.00
2018-06-27T19:06:44.748Z,22.90
2018-06-27T19:09:14.452Z,22.90
2018-06-27T19:11:43.789Z,22.80
2018-06-27T19:14:13.179Z,22.80
2018-06-27T19:16:42.524Z,22.70
2018-06-27T19:19:13.131Z,22.70
2018-06-27T19:21:42.722Z,22.60
2018-06-27T19:24:12.406Z,22.50
2018-06-27T19:26:41.836Z,22.40
2018-06-27T19:29:11.209Z,22.40
2018-06-27T19:31:40.565Z,22.30
2018-06-27T19:34:09.974Z,22.20
2018-06-27T19:36:39.994Z,22.20
2018-06-27T19:39:11.621Z,22.10
2018-06-27T19:41:41.544Z,22.00
2018-06-27T19:44:11.292Z,22.00
2018-06-27T19:46:40.702Z,21.90
2018-06-27T19:49:10.587Z,21.80
2018-06-27T19:51:39.738Z,21.80
2018-06-27T19:54:09.274Z,21.80
2018-06-27T19:56:38.585Z,21.80
2018-06-27T19:59:08.017Z,21.70
2018-06-27T20:01:37.473Z,21.80
2018-06-27T20:04:07.391Z,21.80
2018-06-27T20:06:37.196Z,21.80
2018-06-27T20:09:07.948Z,21.80
2018-06-27T20:11:37.325Z,21.70
2018-06-27T20:14:06.845Z,21.70
2018-06-27T20:16:36.631Z,21.70
2018-06-27T20:19:06.258Z,21.70
2018-06-27T20:21:36.129Z,21.70
2018-06-27T20:24:05.309Z,21.60
2018-06-27T20:26:35.060Z,21.60
2018-06-27T20:29:05.097Z,21.60
2018-06-27T20:31:34.498Z,21.50
2018-06-27T20:34:04.473Z,21.40
2018-06-27T20:36:34.181Z,21.40
2018-06-27T20:39:05.081Z,21.40
2018-06-27T20:41:35.312Z,21.30
2018-06-27T20:44:06.063Z,21.30
2018-06-27T20:46:35.652Z,21.20
2018-06-27T20:49:05.507Z,21.20
2018-06-27T20:51:34.879Z,21.10
2018-06-27T20:54:04.692Z,21.10
2018-06-27T20:59:03.127Z,21.00
2018-06-27T21:01:32.534Z,21.00
2018-06-27T21:04:01.876Z,20.90
2018-06-27T21:06:31.376Z,20.90
2018-06-27T21:09:00.745Z,20.90
2018-06-27T21:11:29.884Z,20.90
2018-06-27T21:13:59.182Z,20.90
2018-06-27T21:18:57.559Z,20.80
2018-06-27T21:21:27.276Z,20.70
2018-06-27T21:23:56.608Z,20.70
2018-06-27T21:26:25.954Z,20.70
2018-06-27T21:28:56.639Z,20.60
2018-06-27T21:31:26.228Z,20.60
2018-06-27T21:33:55.807Z,20.60
2018-06-27T21:36:25.379Z,20.60
2018-06-27T21:38:54.673Z,20.50
2018-06-27T21:41:24.753Z,20.50
2018-06-27T21:43:54.172Z,20.50
2018-06-27T21:46:23.717Z,20.50
2018-06-27T21:48:53.110Z,20.40
2018-06-27T21:51:22.787Z,20.30
2018-06-27T21:53:52.453Z,20.30
2018-06-27T21:56:21.803Z,20.30
2018-06-27T21:58:51.157Z,20.20
2018-06-27T22:01:20.648Z,20.20
2018-06-27T22:03:49.846Z,20.10
2018-06-27T22:06:19.364Z,20.10
2018-06-27T22:08:48.755Z,20.10
2018-06-27T22:11:18.134Z,20.10
2018-06-27T22:13:47.563Z,20.00
2018-06-27T22:16:16.938Z,20.00
2018-06-27T22:18:46.907Z,20.00
2018-06-27T22:21:16.461Z,19.90
2018-06-27T22:23:46.111Z,19.90
2018-06-27T22:26:15.727Z,19.90
2018-06-27T22:28:45.519Z,19.90
2018-06-27T22:31:16.334Z,19.80
2018-06-27T22:33:45.870Z,19.80
2018-06-27T22:36:15.852Z,19.80
2018-06-27T22:38:45.405Z,19.70
2018-06-27T22:41:15.149Z,19.80
2018-06-27T22:43:44.957Z,19.70
2018-06-27T22:46:14.696Z,19.70
2018-06-27T22:48:44.285Z,19.80
2018-06-27T22:51:13.823Z,19.80
2018-06-27T22:53:43.550Z,19.70
2018-06-27T22:56:13.076Z,19.70
2018-06-27T22:58:42.830Z,19.70
2018-06-27T23:01:12.664Z,19.70
2018-06-27T23:03:42.546Z,19.70
2018-06-27T23:06:12.316Z,19.70
2018-06-27T23:08:41.688Z,19.60
2018-06-27T23:11:11.094Z,19.60
2018-06-27T23:13:40.813Z,19.60
2018-06-27T23:16:10.555Z,19.60
2018-06-27T23:18:39.966Z,19.60
2018-06-27T23:21:09.419Z,19.50
2018-06-27T23:23:38.965Z,19.50
2018-06-27T23:26:08.792Z,19.50
2018-06-27T23:28:38.198Z,19.50
2018-06-27T23:31:07.578Z,19.50
2018-06-27T23:33:37.099Z,19.40
2018-06-27T23:36:06.708Z,19.40
2018-06-27T23:38:36.469Z,19.30
2018-06-27T23:41:06.102Z,19.30
2018-06-27T23:43:35.937Z,19.30
2018-06-27T23:46:05.392Z,19.20
2018-06-27T23:48:34.541Z,19.20
2018-06-27T23:51:04.358Z,19.20
2018-06-27T23:53:33.512Z,19.10
2018-06-27T23:56:03.158Z,19.10
2018-06-27T23:58:32.266Z,19.10
